Time;durP1;ratioP1;P1;durP2;ratioP2;P2;SDS_P1;SDS_P2;PMS_P1;PMS_P2;Temp;Humidity;BMP_temperature;BMP_pressure;BME280_temperature;BME280_humidity;BME280_pressure;Samples;Min_cycle;Max_cycle;Signal;HPM_P1;HPM_P2
2023/01/03 00:00:54;;;;;;;16.30;13.10;;;;;;;12.00;58.43;100823.14;108467;1276;21930;-82
2023/01/03 00:04:02;;;;;;;15.80;13.70;;;;;;;11.96;58.58;100821.16;108775;1262;23573;-81
2023/01/03 00:06:47;;;;;;;16.40;13.10;;;;;;;11.91;58.62;100820.80;108779;1277;21925;-81
2023/01/03 00:09:24;;;;;;;17.70;13.90;;;;;;;11.89;58.74;100819.32;108768;1277;22089;-81
2023/01/03 00:12:24;;;;;;;14.90;12.50;;;;;;;11.87;59.00;100819.56;108621;1280;23789;-80
2023/01/03 00:15:12;;;;;;;16.30;12.80;;;;;;;11.86;59.26;100832.68;108486;1280;22439;-81
2023/01/03 00:17:54;;;;;;;17.50;12.50;;;;;;;11.83;59.44;100844.61;108494;1278;23096;-81
2023/01/03 00:20:45;;;;;;;17.70;13.50;;;;;;;11.82;59.60;100855.63;108459;1280;24308;-82
2023/01/03 00:23:17;;;;;;;13.90;11.40;;;;;;;11.80;59.88;100864.05;108091;1286;22702;-81
2023/01/03 00:25:54;;;;;;;17.40;12.90;;;;;;;11.81;60.15;100868.05;108037;1286;23739;-81
2023/01/03 00:28:33;;;;;;;15.20;10.70;;;;;;;11.81;60.28;100880.08;108052;1287;23761;-79
2023/01/03 00:31:16;;;;;;;12.40;11.20;;;;;;;11.77;60.39;100884.05;108318;1282;21957;-82
2023/01/03 00:34:15;;;;;;;15.50;11.10;;;;;;;11.70;60.69;100880.10;108373;1277;22410;-83
2023/01/03 00:36:45;;;;;;;14.60;10.70;;;;;;;11.68;61.08;100886.80;108406;1285;21940;-81
2023/01/03 00:39:20;;;;;;;14.10;11.00;;;;;;;11.63;61.51;100894.28;108382;1282;22418;-83
2023/01/03 00:41:54;;;;;;;11.80;10.50;;;;;;;11.55;61.87;100899.95;108404;1282;21951;-81
2023/01/03 00:44:26;;;;;;;11.50;9.50;;;;;;;11.43;62.33;100905.06;108483;1279;21936;-84
2023/01/03 00:47:01;;;;;;;12.40;9.20;;;;;;;11.36;62.92;100915.74;108463;1282;21969;-82
2023/01/03 00:49:35;;;;;;;13.40;9.60;;;;;;;11.29;63.48;100921.17;108605;1280;21937;-82
2023/01/03 00:52:09;;;;;;;10.80;8.90;;;;;;;11.24;63.84;100918.92;108537;1280;21938;-83
2023/01/03 00:54:44;;;;;;;12.20;9.70;;;;;;;11.17;64.20;100922.61;108482;1280;23073;-82
2023/01/03 00:57:14;;;;;;;13.00;10.20;;;;;;;11.14;64.65;100924.09;108547;1280;23637;-82
2023/01/03 00:59:48;;;;;;;12.40;10.30;;;;;;;11.10;64.91;100930.48;108650;1277;23072;-84
2023/01/03 01:02:21;;;;;;;11.80;10.10;;;;;;;11.06;65.34;100929.90;108557;1280;22713;-83
2023/01/03 01:04:57;;;;;;;13.80;11.70;;;;;;;11.04;65.48;100930.66;108548;1275;22403;-83
2023/01/03 01:07:30;;;;;;;12.90;10.50;;;;;;;10.99;65.74;100930.81;108357;1280;23712;-83
2023/01/03 01:10:07;;;;;;;15.20;10.90;;;;;;;10.97;66.04;100931.24;108357;1282;21941;-83
2023/01/03 01:12:43;;;;;;;16.60;10.60;;;;;;;10.95;66.38;100936.17;108334;1282;23672;-83
2023/01/03 01:15:16;;;;;;;13.60;10.00;;;;;;;10.93;66.40;100934.64;108346;1282;21951;-83
2023/01/03 01:17:49;;;;;;;11.20;9.30;;;;;;;10.89;66.37;100937.92;108458;1279;22396;-83
2023/01/03 01:20:26;;;;;;;11.70;8.60;;;;;;;10.85;66.69;100939.08;108350;1282;21955;-82
2023/01/03 01:23:06;;;;;;;12.80;9.30;;;;;;;10.83;66.99;100942.61;108382;1282;21965;-83
2023/01/03 01:25:41;;;;;;;16.10;9.70;;;;;;;10.84;67.10;100947.45;108406;1280;21939;-83
2023/01/03 01:28:14;;;;;;;11.80;8.90;;;;;;;10.84;67.16;100952.15;108388;1281;22013;-82
2023/01/03 01:30:44;;;;;;;10.20;8.50;;;;;;;10.83;67.11;100955.83;108518;1280;22107;-81
2023/01/03 01:33:16;;;;;;;10.80;8.60;;;;;;;10.81;67.09;100957.64;108431;1280;22039;-82
2023/01/03 01:36:12;;;;;;;8.70;7.80;;;;;;;10.79;67.13;100963.98;108341;1280;21719;-81
2023/01/03 01:38:56;;;;;;;12.20;7.70;;;;;;;10.74;67.29;100956.46;108350;1280;21943;-81
2023/01/03 01:44:59;;;;;;;7.10;6.40;;;;;;;10.70;67.39;100956.93;108626;1277;21940;-84
2023/01/03 01:47:42;;;;;;;7.60;6.40;;;;;;;10.67;67.49;100964.16;108355;1283;21992;-82
2023/01/03 01:50:42;;;;;;;10.50;6.20;;;;;;;10.66;67.51;100962.95;108339;1282;21938;-83
2023/01/03 01:53:23;;;;;;;7.70;7.00;;;;;;;10.67;67.43;100965.71;108512;1282;21911;-82
2023/01/03 01:56:16;;;;;;;9.30;7.20;;;;;;;10.67;67.34;100971.81;108104;1288;21970;-81
2023/01/03 01:58:54;;;;;;;12.60;7.40;;;;;;;10.62;67.18;100977.15;107951;1288;22872;-82
2023/01/03 02:01:26;;;;;;;9.70;6.60;;;;;;;10.59;67.19;100980.19;107949;1288;21939;-82
2023/01/03 02:04:16;;;;;;;9.10;6.70;;;;;;;10.54;67.15;100982.77;107743;1290;21702;-82
2023/01/03 02:06:52;;;;;;;6.60;5.60;;;;;;;10.48;67.07;100988.67;107846;1285;21930;-82
2023/01/03 02:09:34;;;;;;;4.80;4.40;;;;;;;10.42;67.32;100991.29;108099;1286;22727;-82
2023/01/03 02:16:10;;;;;;;4.60;4.10;;;;;;;10.29;67.79;101001.17;108543;1280;21931;-83
2023/01/03 02:19:18;;;;;;;4.20;3.80;;;;;;;10.22;67.97;101009.00;108541;1275;23009;-82
2023/01/03 02:21:59;;;;;;;5.70;4.00;;;;;;;10.16;68.14;101009.67;108663;1274;22687;-80
2023/01/03 02:25:19;;;;;;;4.10;3.70;;;;;;;10.13;68.23;101008.52;108870;1274;22260;-80
2023/01/03 02:28:23;;;;;;;6.30;3.70;;;;;;;10.08;68.33;101013.19;108896;1274;21991;-81
2023/01/03 02:31:31;;;;;;;4.10;3.60;;;;;;;10.04;68.36;101014.86;108871;1274;22275;-83
2023/01/03 02:34:43;;;;;;;6.10;4.10;;;;;;;9.99;68.51;101012.87;108898;1274;21944;-82
2023/01/03 02:38:06;;;;;;;4.50;3.70;;;;;;;9.95;68.61;101022.36;108887;1276;23046;-82
2023/01/03 02:41:16;;;;;;;5.70;4.20;;;;;;;9.95;68.90;101026.38;108832;1274;21971;-80
2023/01/03 02:44:17;;;;;;;5.90;4.70;;;;;;;9.96;68.90;101033.30;107369;1280;1395934;-82
2023/01/03 02:47:02;;;;;;;5.10;4.30;;;;;;;9.95;68.94;101039.92;108203;1280;22013;-82
2023/01/03 02:49:52;;;;;;;5.00;4.40;;;;;;;9.97;68.99;101036.91;108176;1279;23020;-83
2023/01/03 02:52:28;;;;;;;4.50;4.10;;;;;;;10.04;69.04;101038.84;108486;1279;22332;-84
2023/01/03 02:55:19;;;;;;;5.00;3.80;;;;;;;10.07;69.04;101045.19;108424;1278;21939;-83
2023/01/03 02:58:20;;;;;;;5.20;4.00;;;;;;;10.09;69.18;101045.85;108472;1282;21995;-83
2023/01/03 03:00:55;;;;;;;4.70;4.10;;;;;;;10.09;69.18;101053.83;108498;1267;21950;-84
2023/01/03 03:03:37;;;;;;;4.90;4.40;;;;;;;10.15;69.27;101062.22;108555;1280;22593;-83
2023/01/03 03:06:40;;;;;;;5.10;4.50;;;;;;;10.19;69.12;101061.09;108761;1280;21920;-84
2023/01/03 03:09:18;;;;;;;6.40;4.80;;;;;;;10.23;69.28;101062.21;108708;1280;22724;-82
2023/01/03 03:14:53;;;;;;;8.70;5.90;;;;;;;10.27;69.16;101064.55;108291;1279;21966;-79
2023/01/03 03:17:29;;;;;;;5.80;5.10;;;;;;;10.29;69.26;101065.88;108711;1280;21979;-81
2023/01/03 03:26:22;;;;;;;5.40;4.90;;;;;;;10.23;69.22;101073.16;108630;1280;22214;-81
2023/01/03 03:29:01;;;;;;;5.50;5.00;;;;;;;10.21;69.27;101074.23;108415;1282;21943;-82
2023/01/03 03:31:40;;;;;;;5.40;4.90;;;;;;;10.20;69.19;101075.48;108401;1282;23068;-80
2023/01/03 03:34:34;;;;;;;6.50;5.40;;;;;;;10.19;69.14;101080.05;108470;1282;22326;-82
2023/01/03 03:37:20;;;;;;;6.00;5.50;;;;;;;10.15;69.23;101077.17;108462;1283;22297;-82
2023/01/03 03:46:38;;;;;;;7.20;6.60;;;;;;;10.13;69.60;101081.23;108456;1278;21955;-82
2023/01/03 03:52:19;;;;;;;6.40;5.80;;;;;;;10.12;69.48;101089.25;108399;1280;23777;-82
2023/01/03 03:55:27;;;;;;;6.80;6.20;;;;;;;10.08;69.44;101094.40;108460;1280;21953;-83
2023/01/03 03:58:06;;;;;;;5.60;5.10;;;;;;;10.04;69.40;101100.08;108098;1286;21939;-82
2023/01/03 04:00:49;;;;;;;6.20;5.50;;;;;;;10.00;69.37;101102.23;108073;1286;21924;-82
2023/01/03 04:03:30;;;;;;;6.50;5.90;;;;;;;9.96;69.62;101107.55;108068;1289;21934;-83
2023/01/03 04:06:48;;;;;;;6.50;5.90;;;;;;;9.94;69.75;101110.71;108277;1286;21943;-82
2023/01/03 04:09:36;;;;;;;7.10;6.40;;;;;;;9.90;69.78;101117.92;108047;1289;22548;-82
2023/01/03 04:12:50;;;;;;;6.50;5.90;;;;;;;9.89;69.98;101121.27;108058;1289;22936;-83
2023/01/03 04:15:28;;;;;;;9.30;7.40;;;;;;;9.91;69.95;101122.63;107917;1289;23876;-81
2023/01/03 04:18:13;;;;;;;7.50;6.80;;;;;;;9.92;70.00;101127.27;107716;1289;23996;-82
2023/01/03 04:21:01;;;;;;;7.40;6.70;;;;;;;9.92;70.10;101127.27;108021;1289;21961;-81
2023/01/03 04:23:52;;;;;;;8.80;6.90;;;;;;;9.93;70.17;101130.04;107828;1281;21940;-82
2023/01/03 04:26:37;;;;;;;7.40;6.60;;;;;;;9.94;70.03;101134.35;108018;1289;23869;-82
2023/01/03 04:29:11;;;;;;;8.20;6.30;;;;;;;9.94;70.00;101132.97;108008;1289;21941;-81
2023/01/03 04:31:44;;;;;;;7.10;6.50;;;;;;;9.92;70.00;101132.48;108018;1289;23527;-80
2023/01/03 04:34:15;;;;;;;6.50;5.70;;;;;;;9.96;70.17;101135.02;108085;1281;21948;-80
2023/01/03 04:36:51;;;;;;;9.00;6.20;;;;;;;10.00;70.27;101140.83;108483;1281;21914;-82
2023/01/03 04:39:30;;;;;;;7.30;6.00;;;;;;;10.04;70.19;101142.31;108536;1276;23057;-82
2023/01/03 04:45:33;;;;;;;5.70;5.10;;;;;;;10.03;69.94;101148.95;108720;1279;21925;-81
2023/01/03 04:48:39;;;;;;;6.90;5.60;;;;;;;9.97;69.83;101153.23;108796;1277;22007;-82
2023/01/03 04:51:17;;;;;;;6.00;5.20;;;;;;;9.97;69.85;101159.85;108668;1279;21938;-82
2023/01/03 04:54:14;;;;;;;7.90;6.30;;;;;;;9.98;69.76;101158.79;108854;1277;21921;-81
2023/01/03 04:56:51;;;;;;;8.50;6.50;;;;;;;9.98;69.66;101160.52;108712;1274;23765;-81
2023/01/03 04:59:36;;;;;;;6.10;5.50;;;;;;;10.00;69.59;101165.53;108777;1277;21933;-82
2023/01/03 05:02:33;;;;;;;6.20;5.60;;;;;;;9.98;69.48;101160.70;108767;1269;21943;-82
2023/01/03 05:05:09;;;;;;;6.70;5.00;;;;;;;9.98;69.36;101160.00;108469;1279;23771;-80
2023/01/03 05:07:51;;;;;;;7.10;5.20;;;;;;;9.95;69.17;101164.77;108439;1280;21940;-80
2023/01/03 05:10:31;;;;;;;7.60;4.30;;;;;;;9.92;69.10;101165.35;108477;1280;21937;-81
2023/01/03 05:13:10;;;;;;;5.40;4.90;;;;;;;9.89;69.07;101167.70;108507;1280;21940;-80
2023/01/03 05:15:51;;;;;;;5.40;4.30;;;;;;;9.85;68.94;101165.52;108487;1280;21935;-82
2023/01/03 05:18:30;;;;;;;6.50;4.40;;;;;;;9.82;68.95;101166.95;108569;1280;23059;-82
2023/01/03 05:27:21;;;;;;;6.80;3.90;;;;;;;9.75;68.79;101175.10;108535;1280;22071;-82
2023/01/03 05:30:00;;;;;;;4.60;3.50;;;;;;;9.71;68.63;101176.58;108566;1275;21942;-83
2023/01/03 05:32:40;;;;;;;7.10;3.80;;;;;;;9.69;68.60;101181.65;108557;1283;23586;-82
2023/01/03 05:35:25;;;;;;;7.90;4.30;;;;;;;9.69;68.55;101186.36;108526;1282;22362;-83
2023/01/03 05:38:01;;;;;;;8.20;4.10;;;;;;;9.67;68.47;101194.05;108414;1282;21934;-83
2023/01/03 05:40:43;;;;;;;6.50;4.00;;;;;;;9.65;68.41;101200.34;108444;1282;21937;-82
2023/01/03 05:43:24;;;;;;;7.30;4.80;;;;;;;9.66;68.40;101196.33;108404;1282;21953;-84
2023/01/03 05:46:04;;;;;;;8.00;5.70;;;;;;;9.66;68.31;101205.36;108334;1285;21845;-83
2023/01/03 05:48:48;;;;;;;7.10;5.60;;;;;;;9.64;68.16;101203.83;108029;1289;21973;-80
2023/01/03 05:51:26;;;;;;;8.30;6.60;;;;;;;9.63;68.10;101205.08;108016;1289;22026;-81
2023/01/03 05:54:17;;;;;;;15.10;7.80;;;;;;;9.63;68.11;101213.60;107878;1289;22085;-82
2023/01/03 05:56:57;;;;;;;12.40;7.50;;;;;;;9.61;68.10;101220.23;107926;1284;23595;-83
2023/01/03 05:59:39;;;;;;;10.20;6.70;;;;;;;9.61;68.08;101219.89;108194;1289;22631;-82
2023/01/03 06:02:13;;;;;;;11.40;6.60;;;;;;;9.59;67.94;101223.56;108121;1286;23137;-84
2023/01/03 06:04:59;;;;;;;9.30;5.70;;;;;;;9.57;67.80;101226.22;108537;1280;21937;-83
2023/01/03 06:07:37;;;;;;;8.30;5.50;;;;;;;9.54;67.83;101233.08;108687;1277;22160;-82
2023/01/03 06:10:22;;;;;;;8.70;5.40;;;;;;;9.50;67.97;101234.70;108802;1276;22612;-83
2023/01/03 06:13:07;;;;;;;5.10;4.00;;;;;;;9.48;67.97;101236.30;108602;1279;23673;-82
2023/01/03 06:19:12;;;;;;;9.80;5.50;;;;;;;9.42;68.09;101243.02;108709;1275;22297;-83
2023/01/03 06:21:49;;;;;;;10.90;5.50;;;;;;;9.42;68.10;101249.79;108355;1286;21976;-82
2023/01/03 06:24:44;;;;;;;8.60;6.40;;;;;;;9.40;67.94;101260.60;108434;1285;21951;-82
2023/01/03 06:27:23;;;;;;;10.90;8.30;;;;;;;9.41;68.08;101263.19;107801;1277;21940;-82
2023/01/03 06:30:09;;;;;;;10.10;7.70;;;;;;;9.40;68.11;101269.11;107895;1289;23841;-82
2023/01/03 06:32:50;;;;;;;9.80;6.20;;;;;;;9.39;68.03;101270.34;108008;1287;23606;-81
2023/01/03 06:35:30;;;;;;;9.90;5.50;;;;;;;9.42;68.18;101266.48;107535;1295;23629;-82
2023/01/03 06:38:20;;;;;;;11.80;6.00;;;;;;;9.38;68.09;101269.66;107442;1295;21964;-81
2023/01/03 06:40:57;;;;;;;7.60;4.60;;;;;;;9.33;68.10;101272.36;107571;1289;21945;-82
2023/01/03 06:43:43;;;;;;;9.40;5.60;;;;;;;9.30;68.32;101271.55;107623;1293;21958;-81
2023/01/03 06:55:14;;;;;;;8.10;6.10;;;;;;;9.23;68.59;101294.42;108722;1281;22000;-85
2023/01/03 06:57:47;;;;;;;8.10;5.20;;;;;;;9.21;68.40;101296.72;108561;1281;21951;-85
2023/01/03 07:00:19;;;;;;;;;;;;;;;9.21;68.46;101301.75;108659;1279;21998;-85
2023/01/03 07:02:49;;;;;;;7.30;5.00;;;;;;;9.09;68.58;101302.29;108452;1284;22026;-85
2023/01/03 07:05:22;;;;;;;8.80;5.00;;;;;;;9.06;68.57;101302.52;108803;1278;21922;-85
2023/01/03 07:08:05;;;;;;;6.30;5.00;;;;;;;9.04;68.58;101299.25;108932;1275;21931;-83
2023/01/03 07:11:01;;;;;;;12.90;9.70;;;;;;;8.98;68.58;101310.47;108251;1286;22375;-85
2023/01/03 07:13:58;;;;;;;10.20;6.80;;;;;;;8.94;68.69;101318.33;108098;1288;23144;-85
2023/01/03 07:16:49;;;;;;;10.80;7.80;;;;;;;8.91;68.72;101319.78;108222;1288;21963;-83
2023/01/03 07:19:25;;;;;;;13.20;8.00;;;;;;;8.87;68.68;101327.30;108207;1288;21955;-85
2023/01/03 07:22:04;;;;;;;11.50;7.30;;;;;;;8.84;68.83;101334.64;107954;1291;22440;-85
2023/01/03 07:24:44;;;;;;;10.90;7.70;;;;;;;8.81;68.86;101337.27;108135;1289;21955;-84
2023/01/03 07:27:18;;;;;;;12.50;8.20;;;;;;;8.78;69.01;101342.53;108190;1288;23076;-84
2023/01/03 07:29:54;;;;;;;9.60;7.30;;;;;;;8.79;69.13;101346.86;108082;1287;21943;-84
2023/01/03 07:32:27;;;;;;;12.90;7.30;;;;;;;8.80;69.04;101350.50;108532;1283;23235;-84
2023/01/03 07:35:04;;;;;;;19.00;11.50;;;;;;;8.78;69.10;101349.83;108646;1283;22296;-85
2023/01/03 07:37:40;;;;;;;11.20;6.30;;;;;;;8.77;69.00;101349.14;108592;1284;22002;-84
2023/01/03 07:40:12;;;;;;;10.80;8.00;;;;;;;8.74;68.90;101351.79;108629;1281;21946;-84
2023/01/03 07:45:41;;;;;;;9.10;7.90;;;;;;;8.68;68.53;101361.59;108127;1289;23720;-85
2023/01/03 07:48:11;;;;;;;10.90;6.00;;;;;;;8.64;68.49;101365.27;108058;1290;23012;-82
2023/01/03 07:50:51;;;;;;;7.40;6.00;;;;;;;8.61;68.40;101377.12;108134;1290;21945;-85
2023/01/03 07:53:43;;;;;;;8.40;5.70;;;;;;;8.60;68.41;101380.62;108173;1289;21945;-86
2023/01/03 07:56:22;;;;;;;7.20;5.10;;;;;;;8.59;68.21;101383.73;108495;1287;23841;-84
2023/01/03 07:58:54;;;;;;;7.20;5.00;;;;;;;8.59;68.19;101388.07;108301;1286;21944;-85
2023/01/03 08:01:29;;;;;;;7.00;5.60;;;;;;;8.60;68.08;101389.80;108619;1281;21980;-83
2023/01/03 08:04:02;;;;;;;7.20;5.50;;;;;;;8.60;67.82;101393.80;108967;1277;23614;-83
2023/01/03 08:06:36;;;;;;;5.90;4.70;;;;;;;8.60;67.79;101394.67;108939;1278;21902;-83
2023/01/03 08:15:07;;;;;;;9.20;6.70;;;;;;;8.55;67.61;101398.71;108689;1283;21930;-82
2023/01/03 08:17:41;;;;;;;12.70;7.00;;;;;;;8.56;67.51;101404.27;108554;1285;21927;-82
2023/01/03 08:20:28;;;;;;;8.20;6.20;;;;;;;8.55;67.38;101406.52;108603;1285;21959;-83
2023/01/03 08:23:06;;;;;;;13.20;5.70;;;;;;;8.58;67.41;101412.23;108500;1285;22442;-81
2023/01/03 08:26:06;;;;;;;7.80;6.20;;;;;;;8.61;67.29;101415.47;108505;1285;22082;-80
2023/01/03 08:28:38;;;;;;;12.10;7.20;;;;;;;8.65;67.33;101423.41;108186;1285;21930;-81
2023/01/03 08:31:26;;;;;;;11.50;7.00;;;;;;;8.66;67.17;101421.48;108744;1275;21935;-79
2023/01/03 08:34:04;;;;;;;15.30;7.70;;;;;;;8.65;66.94;101422.54;108473;1273;23072;-78
2023/01/03 08:36:56;;;;;;;11.70;7.40;;;;;;;8.62;66.85;101423.27;108450;1286;21980;-79
2023/01/03 08:39:37;;;;;;;12.00;7.50;;;;;;;8.62;66.86;101426.91;108483;1283;21966;-84
2023/01/03 08:42:09;;;;;;;11.80;7.30;;;;;;;8.60;66.73;101425.73;108501;1285;21927;-80
2023/01/03 08:44:43;;;;;;;9.80;6.10;;;;;;;8.58;66.56;101427.83;108571;1280;21935;-81
2023/01/03 08:47:14;;;;;;;7.50;6.00;;;;;;;8.56;66.54;101436.17;108441;1284;21964;-80
2023/01/03 08:49:44;;;;;;;8.50;5.40;;;;;;;8.57;66.47;101435.48;108513;1285;23717;-81
2023/01/03 08:52:14;;;;;;;6.40;5.50;;;;;;;8.58;66.41;101440.86;108630;1278;24188;-81
2023/01/03 08:54:44;;;;;;;7.70;5.00;;;;;;;8.60;66.54;101442.90;108630;1279;23149;-80
2023/01/03 08:57:13;;;;;;;6.50;4.50;;;;;;;8.62;66.29;101445.30;108659;1280;22284;-79
2023/01/03 08:59:43;;;;;;;7.70;4.50;;;;;;;8.63;66.19;101449.28;108625;1282;21958;-80
2023/01/03 09:02:13;;;;;;;5.80;4.30;;;;;;;8.62;66.04;101450.50;108495;1281;24283;-81
2023/01/03 09:04:42;;;;;;;9.40;5.70;;;;;;;8.62;65.92;101452.94;108636;1277;23050;-78
2023/01/03 09:07:12;;;;;;;6.20;4.60;;;;;;;8.62;65.84;101451.55;108679;1282;21962;-80
2023/01/03 09:09:42;;;;;;;8.20;5.70;;;;;;;8.62;65.71;101454.34;108671;1279;22801;-78
2023/01/03 09:12:15;;;;;;;6.80;5.20;;;;;;;8.59;65.62;101454.89;108841;1278;21932;-82
2023/01/03 09:14:45;;;;;;;7.80;4.90;;;;;;;8.58;65.41;101461.15;108787;1281;23702;-81
2023/01/03 09:17:16;;;;;;;8.60;4.80;;;;;;;8.57;65.42;101464.63;108794;1279;23579;-80
2023/01/03 09:19:47;;;;;;;8.70;5.10;;;;;;;8.60;65.35;101461.64;108817;1276;24295;-81
2023/01/03 09:22:17;;;;;;;9.20;5.70;;;;;;;8.63;65.33;101463.34;108758;1276;22023;-83
2023/01/03 09:24:53;;;;;;;8.60;4.40;;;;;;;8.65;65.20;101463.15;108913;1281;22042;-82
2023/01/03 09:27:23;;;;;;;5.80;4.60;;;;;;;8.69;65.04;101466.39;108880;1280;21931;-80
2023/01/03 09:29:53;;;;;;;11.30;5.50;;;;;;;8.73;64.96;101469.12;108850;1278;23799;-85
2023/01/03 09:32:25;;;;;;;13.50;5.80;;;;;;;8.80;64.92;101470.77;108806;1275;22335;-82
2023/01/03 09:34:56;;;;;;;10.90;5.80;;;;;;;8.86;64.60;101465.83;108503;1280;24123;-83
2023/01/03 09:37:27;;;;;;;8.20;6.20;;;;;;;8.90;64.38;101474.12;108306;1288;23620;-83
2023/01/03 09:39:58;;;;;;;8.20;5.40;;;;;;;8.92;64.31;101475.48;108369;1287;21950;-82
2023/01/03 09:45:33;;;;;;;10.20;5.10;;;;;;;9.02;64.05;101484.37;108279;1285;22424;-85
2023/01/03 09:48:04;;;;;;;6.90;4.80;;;;;;;9.05;63.55;101484.86;108331;1289;21822;-84
2023/01/03 09:50:37;;;;;;;8.30;3.80;;;;;;;8.97;62.71;101477.84;108283;1282;22336;-84
2023/01/03 10:06:00;;;;;;;7.90;3.90;;;;;;;8.64;62.69;101473.38;109093;1273;21943;-89
2023/01/03 10:09:06;;;;;;;8.90;5.10;;;;;;;8.54;62.59;101473.16;109133;1275;21918;-86
2023/01/03 10:11:54;;;;;;;12.60;4.90;;;;;;;8.48;62.74;101469.08;108995;1278;21943;-84
2023/01/03 10:14:51;;;;;;;4.50;3.70;;;;;;;8.43;62.74;101477.61;108595;1282;21935;-84
2023/01/03 10:17:42;;;;;;;7.30;4.10;;;;;;;8.44;62.95;101473.62;108735;1282;21987;-83
2023/01/03 10:20:56;;;;;;;7.70;4.20;;;;;;;8.50;63.19;101478.41;108756;1282;21982;-82
2023/01/03 10:23:29;;;;;;;7.80;4.70;;;;;;;8.55;63.01;101480.96;108673;1283;23617;-83
2023/01/03 10:25:59;;;;;;;6.30;4.40;;;;;;;8.60;63.00;101484.55;108559;1282;23113;-83
2023/01/03 10:28:37;;;;;;;7.00;4.00;;;;;;;8.70;63.19;101486.67;108532;1282;23010;-83
2023/01/03 10:31:30;;;;;;;6.90;4.10;;;;;;;8.87;63.16;101485.80;108236;1284;23037;-84
2023/01/03 10:34:03;;;;;;;7.40;4.50;;;;;;;9.02;63.09;101482.63;108789;1283;21941;-82
2023/01/03 10:36:36;;;;;;;6.80;4.80;;;;;;;9.20;63.04;101481.86;108779;1280;22892;-83
2023/01/03 10:39:09;;;;;;;6.60;4.70;;;;;;;9.39;62.92;101480.73;108609;1280;21941;-82
2023/01/03 10:41:45;;;;;;;8.00;5.00;;;;;;;9.56;62.46;101477.34;108697;1282;21960;-82
2023/01/03 10:44:34;;;;;;;7.70;4.50;;;;;;;9.71;62.03;101479.71;108629;1283;21981;-82
2023/01/03 10:47:19;;;;;;;6.00;4.30;;;;;;;9.83;61.64;101477.61;108603;1284;21936;-84
2023/01/03 10:49:49;;;;;;;9.00;4.50;;;;;;;9.87;60.76;101475.27;108780;1275;21994;-83
2023/01/03 10:52:23;;;;;;;5.50;3.80;;;;;;;9.82;60.05;101483.02;108981;1277;22151;-84
2023/01/03 10:55:00;;;;;;;5.70;4.70;;;;;;;9.68;59.69;101483.40;108906;1274;22637;-84
2023/01/03 10:57:58;;;;;;;5.80;4.90;;;;;;;9.60;59.70;101484.93;108826;1280;21941;-83
2023/01/03 11:00:35;;;;;;;5.90;4.00;;;;;;;9.50;59.76;101486.47;108852;1280;22240;-84
2023/01/03 11:03:16;;;;;;;7.40;4.10;;;;;;;9.46;59.81;101490.19;108903;1277;23791;-82
2023/01/03 11:05:55;;;;;;;7.10;4.20;;;;;;;9.45;59.86;101488.64;108617;1281;21930;-85
2023/01/03 11:08:47;;;;;;;6.60;4.60;;;;;;;9.38;59.71;101488.39;109001;1280;23112;-84
2023/01/03 11:11:41;;;;;;;6.90;4.60;;;;;;;9.28;59.52;101492.53;108767;1281;23064;-82
2023/01/03 11:14:49;;;;;;;8.80;4.70;;;;;;;9.21;59.69;101494.19;108587;1283;21942;-83
2023/01/03 11:17:20;;;;;;;5.40;4.10;;;;;;;9.19;59.94;101492.31;108268;1284;22362;-83
2023/01/03 11:19:52;;;;;;;7.90;4.80;;;;;;;9.25;60.11;101486.66;107498;1295;23078;-83
2023/01/03 11:22:45;;;;;;;8.60;4.10;;;;;;;9.22;59.80;101491.92;107628;1294;21960;-84
2023/01/03 11:25:22;;;;;;;5.80;4.60;;;;;;;9.18;59.77;101488.67;108036;1289;21909;-83
2023/01/03 11:28:25;;;;;;;6.50;4.30;;;;;;;9.18;59.93;101487.46;108035;1289;21964;-85
2023/01/03 11:31:32;;;;;;;8.10;5.40;;;;;;;9.13;59.87;101487.88;107895;1287;21962;-86
2023/01/03 11:35:01;;;;;;;11.30;4.90;;;;;;;9.09;60.01;101489.48;108013;1289;21967;-83
2023/01/03 11:38:24;;;;;;;6.80;4.30;;;;;;;9.04;60.06;101492.34;108276;1284;21976;-83
2023/01/03 11:41:21;;;;;;;7.40;4.20;;;;;;;9.04;59.98;101494.77;108505;1282;22415;-83
2023/01/03 11:43:59;;;;;;;6.70;4.30;;;;;;;9.03;59.83;101494.08;108334;1283;22050;-83
2023/01/03 11:47:06;;;;;;;9.50;7.00;;;;;;;9.05;59.98;101498.05;108623;1282;21971;-84
2023/01/03 11:50:26;;;;;;;11.10;6.70;;;;;;;9.05;59.97;101495.63;108460;1282;24890;-83
2023/01/03 11:52:56;;;;;;;11.80;6.20;;;;;;;8.97;59.87;101493.98;108587;1279;21972;-83
2023/01/03 11:55:50;;;;;;;6.90;5.50;;;;;;;8.91;59.99;101493.38;109030;1276;21918;-84
2023/01/03 11:59:06;;;;;;;8.90;5.90;;;;;;;8.86;60.05;101493.09;108999;1276;22415;-86
2023/01/03 12:02:34;;;;;;;8.40;5.40;;;;;;;8.78;60.25;101488.84;108789;1276;23657;-80
2023/01/03 12:05:41;;;;;;;7.60;5.20;;;;;;;8.73;60.45;101487.00;108328;1282;21964;-77
2023/01/03 12:08:28;;;;;;;9.50;6.30;;;;;;;8.75;60.71;101487.14;108639;1282;22623;-81
2023/01/03 12:11:15;;;;;;;10.10;6.10;;;;;;;8.81;60.91;101490.55;108345;1281;22717;-79
2023/01/03 12:14:25;;;;;;;8.20;6.20;;;;;;;8.88;61.17;101486.98;108334;1280;21954;-81
2023/01/03 12:17:26;;;;;;;11.90;6.90;;;;;;;8.92;61.04;101489.89;107833;1272;21989;-77
2023/01/03 12:20:27;;;;;;;10.50;5.90;;;;;;;8.91;60.66;101489.38;108092;1289;22734;-79
2023/01/03 12:23:19;;;;;;;7.80;5.60;;;;;;;8.87;60.36;101488.03;107843;1286;22027;-78
2023/01/03 12:25:56;;;;;;;9.80;5.70;;;;;;;8.85;60.46;101489.98;108154;1286;21968;-77
2023/01/03 12:28:37;;;;;;;9.80;4.50;;;;;;;8.82;60.27;101488.63;107922;1286;22770;-81
2023/01/03 12:31:48;;;;;;;10.40;5.50;;;;;;;8.74;59.99;101485.59;108098;1286;23613;-80
2023/01/03 12:34:25;;;;;;;8.70;4.90;;;;;;;8.66;60.22;101484.64;107897;1281;23515;-80
2023/01/03 12:37:25;;;;;;;7.30;5.00;;;;;;;8.62;60.05;101484.17;108516;1281;21977;-83
2023/01/03 12:40:26;;;;;;;8.90;4.80;;;;;;;8.61;60.00;101488.70;108609;1276;21939;-84
2023/01/03 12:43:09;;;;;;;;;;;;;;;8.55;59.65;101488.08;108834;1276;23083;-86
2023/01/03 12:46:03;;;;;;;13.40;5.50;;;;;;;8.44;59.97;101488.17;108699;1281;23639;-87
2023/01/03 12:48:56;;;;;;;8.70;4.70;;;;;;;8.42;59.79;101486.98;108742;1279;21951;-84
2023/01/03 12:51:29;;;;;;;9.10;5.40;;;;;;;8.42;59.71;101476.41;108753;1281;21987;-86
2023/01/03 12:54:50;;;;;;;11.30;4.70;;;;;;;8.40;59.55;101481.09;108859;1280;21952;-83
2023/01/03 12:57:41;;;;;;;9.70;5.30;;;;;;;8.33;59.46;101479.95;108477;1286;22268;-84
2023/01/03 13:00:32;;;;;;;7.50;5.80;;;;;;;8.29;59.51;101477.05;108334;1286;21962;-86
2023/01/03 13:03:32;;;;;;;9.50;5.20;;;;;;;8.25;59.55;101474.83;108406;1282;21946;-88
2023/01/03 13:06:15;;;;;;;8.80;4.90;;;;;;;8.19;59.54;101471.59;108424;1285;21956;-84
2023/01/03 13:08:56;;;;;;;8.80;4.90;;;;;;;8.15;59.49;101470.60;108321;1285;23723;-83
2023/01/03 13:11:44;;;;;;;10.10;5.40;;;;;;;8.11;59.40;101470.28;108203;1285;21943;-85
2023/01/03 13:14:25;;;;;;;12.10;5.40;;;;;;;8.06;59.51;101472.23;108441;1286;21992;-84
2023/01/03 13:17:05;;;;;;;11.40;6.10;;;;;;;8.01;59.42;101473.50;108379;1286;21957;-86
2023/01/03 13:19:35;;;;;;;7.40;5.30;;;;;;;7.98;59.61;101477.17;107848;1293;23613;-83
2023/01/03 13:22:49;;;;;;;8.50;5.00;;;;;;;7.98;59.76;101476.13;107754;1291;21952;-84
2023/01/03 13:25:34;;;;;;;14.30;5.70;;;;;;;7.95;59.92;101473.56;108145;1288;23090;-84
2023/01/03 13:28:19;;;;;;;10.20;5.40;;;;;;;7.94;59.91;101470.63;108187;1288;23110;-85
2023/01/03 13:31:27;;;;;;;9.80;6.00;;;;;;;7.93;60.03;101474.80;108235;1288;21946;-86
2023/01/03 13:34:13;;;;;;;9.30;6.30;;;;;;;7.89;60.26;101481.75;108188;1289;21969;-85
2023/01/03 13:37:06;;;;;;;9.10;5.80;;;;;;;7.90;60.43;101487.80;108191;1283;23770;-83
2023/01/03 13:39:54;;;;;;;15.90;6.00;;;;;;;7.92;60.60;101491.08;108548;1282;23097;-84
2023/01/03 13:42:37;;;;;;;11.40;6.30;;;;;;;7.93;60.64;101495.41;108169;1288;22257;-84
2023/01/03 13:45:10;;;;;;;12.70;6.20;;;;;;;7.94;60.74;101495.23;107809;1288;22214;-86
2023/01/03 13:47:53;;;;;;;19.60;6.70;;;;;;;7.99;60.76;101496.56;108261;1284;21959;-86